Time;durP1;ratioP1;P1;durP2;ratioP2;P2;SDS_P1;SDS_P2;PMS_P1;PMS_P2;Temp;Humidity;BMP_temperature;BMP_pressure;BME280_temperature;BME280_humidity;BME280_pressure;Samples;Min_cycle;Max_cycle;Signal;HPM_P1;HPM_P2
2022/01/14 00:01:38;;;;;;;19.42;11.18;;;;;;;;;;5015892;28;20120;-53
2022/01/14 00:04:05;;;;;;;19.85;11.25;;;;;;;;;;5020069;28;20041;-53
2022/01/14 00:06:31;;;;;;;21.95;11.05;;;;;;;;;;5027004;28;20044;-56
2022/01/14 00:09:05;;;;;;;17.50;9.98;;;;;;;;;;5020140;28;20069;-56
2022/01/14 00:11:32;;;;;;;19.65;9.65;;;;;;;;;;5020628;28;20378;-49
2022/01/14 00:16:30;;;;;;;15.73;10.00;;;;;;;;;;5021781;28;20509;-53
2022/01/14 00:18:57;;;;;;;17.38;10.75;;;;;;;;;;5021221;28;20045;-53
2022/01/14 00:21:28;;;;;;;20.85;11.15;;;;;;;;;;5017280;28;20050;-55
2022/01/14 00:24:06;;;;;;;21.55;11.02;;;;;;;;;;5019032;28;20473;-54
2022/01/14 00:34:49;;;;;;;15.43;9.95;;;;;;;;;;5000806;28;20046;-53
2022/01/14 00:37:16;;;;;;;17.05;10.25;;;;;;;;;;5002904;28;20033;-53
2022/01/14 00:39:43;;;;;;;20.42;10.77;;;;;;;;;;5002157;28;21079;-49
2022/01/14 00:42:10;;;;;;;18.77;10.63;;;;;;;;;;5002487;28;20129;-52
2022/01/14 00:44:36;;;;;;;19.33;10.88;;;;;;;;;;5002010;28;20038;-52
2022/01/14 00:47:04;;;;;;;13.63;9.35;;;;;;;;;;5000462;28;20570;-50
2022/01/14 00:49:30;;;;;;;14.93;10.02;;;;;;;;;;5000650;28;20033;-53
2022/01/14 00:51:56;;;;;;;16.95;10.98;;;;;;;;;;5002949;28;20075;-52
2022/01/14 00:54:22;;;;;;;24.48;12.50;;;;;;;;;;5000754;28;20050;-52
2022/01/14 00:57:02;;;;;;;20.83;11.88;;;;;;;;;;5001677;28;20038;-53
2022/01/14 00:59:28;;;;;;;19.08;10.57;;;;;;;;;;5000778;28;20053;-50
2022/01/14 01:01:56;;;;;;;19.05;10.60;;;;;;;;;;4993947;28;20125;-50
2022/01/14 01:04:28;;;;;;;20.13;12.30;;;;;;;;;;5006603;28;20025;-52
2022/01/14 01:06:54;;;;;;;26.58;13.32;;;;;;;;;;5013414;28;20045;-50
2022/01/14 01:09:23;;;;;;;20.13;12.23;;;;;;;;;;5023447;28;20030;-57
2022/01/14 01:12:08;;;;;;;18.77;11.25;;;;;;;;;;5024931;28;20039;-51
2022/01/14 01:14:43;;;;;;;17.85;11.15;;;;;;;;;;5016535;28;20061;-53
2022/01/14 01:17:09;;;;;;;20.35;9.65;;;;;;;;;;5024729;28;20037;-52
2022/01/14 01:19:34;;;;;;;15.80;9.68;;;;;;;;;;5022444;28;20121;-54
2022/01/14 01:22:00;;;;;;;21.27;10.60;;;;;;;;;;5025681;28;20469;-52
2022/01/14 01:24:26;;;;;;;16.73;10.20;;;;;;;;;;5020316;28;20052;-53
2022/01/14 01:26:52;;;;;;;20.13;10.73;;;;;;;;;;5022308;28;20456;-54
2022/01/14 01:31:54;;;;;;;19.77;9.57;;;;;;;;;;5026704;28;20088;-53
2022/01/14 01:34:23;;;;;;;18.48;9.93;;;;;;;;;;5020363;28;20044;-51
2022/01/14 01:36:51;;;;;;;16.52;9.57;;;;;;;;;;5025521;28;20506;-54
2022/01/14 01:39:20;;;;;;;15.70;9.57;;;;;;;;;;5024655;28;20091;-53
2022/01/14 01:41:50;;;;;;;14.68;8.90;;;;;;;;;;5026939;28;20030;-51
2022/01/14 01:44:18;;;;;;;15.90;8.75;;;;;;;;;;5022706;28;20061;-50
2022/01/14 01:46:46;;;;;;;15.27;8.52;;;;;;;;;;5028434;28;20478;-49
2022/01/14 01:49:14;;;;;;;12.48;8.63;;;;;;;;;;5021801;28;20042;-48
2022/01/14 01:51:42;;;;;;;19.92;9.70;;;;;;;;;;5025947;28;20071;-49
2022/01/14 01:54:08;;;;;;;16.75;9.63;;;;;;;;;;5022794;28;20455;-55
2022/01/14 01:56:33;;;;;;;16.65;9.95;;;;;;;;;;5020372;28;20057;-53
2022/01/14 01:58:59;;;;;;;18.52;9.30;;;;;;;;;;5021482;28;20041;-55
2022/01/14 02:01:25;;;;;;;15.88;9.13;;;;;;;;;;5025375;28;20112;-54
2022/01/14 02:03:54;;;;;;;14.45;8.07;;;;;;;;;;5020619;28;20034;-49
2022/01/14 02:06:21;;;;;;;14.75;8.25;;;;;;;;;;5022804;28;20071;-51
2022/01/14 02:08:48;;;;;;;18.92;8.18;;;;;;;;;;5023663;28;20038;-52
2022/01/14 02:11:14;;;;;;;14.13;8.05;;;;;;;;;;5029833;28;20029;-48
2022/01/14 02:13:40;;;;;;;11.15;7.85;;;;;;;;;;5026917;28;20029;-51
2022/01/14 02:18:59;;;;;;;16.92;8.50;;;;;;;;;;5020770;28;20029;-51
2022/01/14 02:26:50;;;;;;;12.63;7.97;;;;;;;;;;5019704;28;20041;-56
2022/01/14 02:29:16;;;;;;;12.27;7.53;;;;;;;;;;5022929;28;20054;-53
2022/01/14 02:31:43;;;;;;;13.55;7.15;;;;;;;;;;5023223;28;20042;-54
2022/01/14 02:34:10;;;;;;;11.05;7.25;;;;;;;;;;5018880;28;20061;-52
2022/01/14 02:36:38;;;;;;;13.90;7.60;;;;;;;;;;5020313;28;20540;-50
2022/01/14 02:39:04;;;;;;;10.63;6.50;;;;;;;;;;5021845;28;20041;-54
2022/01/14 02:41:30;;;;;;;8.95;6.28;;;;;;;;;;5027588;28;20040;-48
2022/01/14 02:44:03;;;;;;;11.02;7.03;;;;;;;;;;5022182;28;20077;-55
2022/01/14 02:46:36;;;;;;;10.57;6.38;;;;;;;;;;5020872;28;20117;-55
2022/01/14 02:49:03;;;;;;;15.13;6.57;;;;;;;;;;5024714;28;20037;-53
2022/01/14 02:51:28;;;;;;;10.52;6.45;;;;;;;;;;5024732;28;20033;-57
2022/01/14 02:54:10;;;;;;;10.43;6.50;;;;;;;;;;5027944;28;20069;-53
2022/01/14 02:56:38;;;;;;;9.57;5.95;;;;;;;;;;5021255;28;20029;-50
2022/01/14 02:59:05;;;;;;;9.75;6.47;;;;;;;;;;5020277;28;20022;-56
2022/01/14 03:01:32;;;;;;;9.13;5.75;;;;;;;;;;5019615;28;20087;-49
2022/01/14 03:04:01;;;;;;;8.80;6.15;;;;;;;;;;5026140;28;20044;-53
2022/01/14 03:06:28;;;;;;;9.27;6.18;;;;;;;;;;5018598;28;20030;-55
2022/01/14 03:08:54;;;;;;;9.93;5.95;;;;;;;;;;5016776;28;20478;-53
2022/01/14 03:11:25;;;;;;;9.63;5.72;;;;;;;;;;5019413;28;20044;-55
2022/01/14 03:13:51;;;;;;;8.25;5.70;;;;;;;;;;5021206;28;20033;-56
2022/01/14 03:16:20;;;;;;;10.68;6.18;;;;;;;;;;5019990;28;20116;-51
2022/01/14 03:18:50;;;;;;;9.45;5.88;;;;;;;;;;5020100;28;20029;-50
2022/01/14 03:21:25;;;;;;;11.07;5.93;;;;;;;;;;5026557;28;20045;-50
2022/01/14 03:24:02;;;;;;;16.17;6.88;;;;;;;;;;5024019;28;20034;-56
2022/01/14 03:26:28;;;;;;;10.43;6.20;;;;;;;;;;5017832;28;20041;-53
2022/01/14 03:28:54;;;;;;;10.60;5.88;;;;;;;;;;5021176;28;20052;-53
2022/01/14 03:31:20;;;;;;;8.95;6.45;;;;;;;;;;5024828;28;20038;-56
2022/01/14 03:33:46;;;;;;;8.60;5.75;;;;;;;;;;5021137;28;20147;-51
2022/01/14 03:36:12;;;;;;;13.60;5.70;;;;;;;;;;5016908;28;20481;-54
2022/01/14 03:38:38;;;;;;;10.00;5.65;;;;;;;;;;5017896;28;20039;-54
2022/01/14 03:41:05;;;;;;;7.85;5.68;;;;;;;;;;5020977;28;20048;-56
2022/01/14 03:43:31;;;;;;;7.72;4.85;;;;;;;;;;5024670;28;20091;-52
2022/01/14 03:45:57;;;;;;;8.05;5.53;;;;;;;;;;5022850;28;20116;-52
2022/01/14 03:48:23;;;;;;;7.75;5.38;;;;;;;;;;5017148;28;20109;-53
2022/01/14 03:50:49;;;;;;;10.80;5.35;;;;;;;;;;5022768;28;20028;-53
2022/01/14 03:53:15;;;;;;;7.05;5.22;;;;;;;;;;5019812;28;20112;-49
2022/01/14 03:55:43;;;;;;;10.02;6.05;;;;;;;;;;5025414;28;20033;-56
2022/01/14 03:58:09;;;;;;;8.60;6.15;;;;;;;;;;5020927;28;20033;-51
2022/01/14 04:00:36;;;;;;;7.40;5.38;;;;;;;;;;5019326;28;20029;-53
2022/01/14 04:03:03;;;;;;;8.80;5.65;;;;;;;;;;5021714;28;20033;-54
2022/01/14 04:05:29;;;;;;;9.43;5.40;;;;;;;;;;5016513;28;20378;-53
2022/01/14 04:07:55;;;;;;;8.10;5.72;;;;;;;;;;5024149;28;20026;-54
2022/01/14 04:10:22;;;;;;;11.18;5.97;;;;;;;;;;5022966;28;20032;-54
2022/01/14 04:12:58;;;;;;;12.77;5.72;;;;;;;;;;5020232;28;20042;-54
2022/01/14 04:18:15;;;;;;;10.23;5.70;;;;;;;;;;5017965;28;20045;-54
2022/01/14 04:20:41;;;;;;;;;;;;;;;;;;5020505;28;20077;-53
2022/01/14 04:23:07;;;;;;;7.45;5.40;;;;;;;;;;5025157;28;19923;-55
2022/01/14 04:25:34;;;;;;;10.18;6.10;;;;;;;;;;5019119;28;20066;-56
2022/01/14 04:28:02;;;;;;;16.08;6.55;;;;;;;;;;5020052;28;20475;-54
2022/01/14 04:30:28;;;;;;;8.68;5.93;;;;;;;;;;5025757;28;20068;-57
2022/01/14 04:32:55;;;;;;;10.90;5.50;;;;;;;;;;5023792;28;20045;-56
2022/01/14 04:35:21;;;;;;;7.88;5.78;;;;;;;;;;5019063;28;20098;-53
2022/01/14 04:37:46;;;;;;;11.50;6.05;;;;;;;;;;5027368;28;20061;-54
2022/01/14 04:40:13;;;;;;;8.45;6.30;;;;;;;;;;5026380;28;20045;-56
2022/01/14 04:42:41;;;;;;;10.98;7.22;;;;;;;;;;5026662;28;20409;-54
2022/01/14 04:45:09;;;;;;;11.38;7.25;;;;;;;;;;5028103;28;20033;-54
2022/01/14 04:47:44;;;;;;;11.45;7.00;;;;;;;;;;5022270;28;20440;-52
2022/01/14 04:50:16;;;;;;;11.80;7.07;;;;;;;;;;5029514;28;20033;-56
2022/01/14 04:52:43;;;;;;;11.53;7.07;;;;;;;;;;5021638;28;20149;-57
2022/01/14 04:55:11;;;;;;;11.77;7.13;;;;;;;;;;5026375;28;20394;-57
2022/01/14 04:57:38;;;;;;;86.82;28.73;;;;;;;;;;5026170;28;20029;-57
2022/01/14 05:00:10;;;;;;;14.43;7.57;;;;;;;;;;5028328;28;20029;-57
2022/01/14 05:02:37;;;;;;;15.95;8.27;;;;;;;;;;5026345;28;20029;-57
2022/01/14 05:05:06;;;;;;;11.52;6.78;;;;;;;;;;5023651;28;20045;-56
2022/01/14 05:07:33;;;;;;;9.50;6.75;;;;;;;;;;5031835;28;20067;-52
2022/01/14 05:12:33;;;;;;;9.68;5.63;;;;;;;;;;5025631;28;20057;-56
2022/01/14 05:14:59;;;;;;;10.93;6.10;;;;;;;;;;5029124;28;20140;-55
2022/01/14 05:17:24;;;;;;;9.57;6.10;;;;;;;;;;5018587;28;20104;-57
2022/01/14 05:19:50;;;;;;;10.68;5.72;;;;;;;;;;5023033;28;20057;-56
2022/01/14 05:22:17;;;;;;;6.63;4.75;;;;;;;;;;5030885;28;20504;-56
2022/01/14 05:24:44;;;;;;;10.40;6.10;;;;;;;;;;5024272;28;20418;-54
2022/01/14 05:27:10;;;;;;;9.40;6.30;;;;;;;;;;5024807;28;20033;-54
2022/01/14 05:29:36;;;;;;;8.52;5.90;;;;;;;;;;5028123;28;20017;-56
2022/01/14 05:32:04;;;;;;;6.70;5.03;;;;;;;;;;5024150;28;20032;-55
2022/01/14 05:34:33;;;;;;;9.00;5.35;;;;;;;;;;5020690;28;20120;-56
2022/01/14 05:37:02;;;;;;;8.00;5.50;;;;;;;;;;5021475;28;20439;-56
2022/01/14 05:39:28;;;;;;;11.60;6.35;;;;;;;;;;5021892;28;20733;-54
2022/01/14 05:41:55;;;;;;;7.35;5.35;;;;;;;;;;5029359;28;20033;-57
2022/01/14 05:44:23;;;;;;;9.35;5.55;;;;;;;;;;5027644;28;20033;-57
2022/01/14 05:46:49;;;;;;;13.18;5.90;;;;;;;;;;5017426;28;20038;-56
2022/01/14 05:49:15;;;;;;;14.13;9.05;;;;;;;;;;5022782;28;20034;-56
2022/01/14 05:51:41;;;;;;;11.35;6.78;;;;;;;;;;5024853;28;20095;-57
2022/01/14 05:54:06;;;;;;;11.23;5.30;;;;;;;;;;5023474;28;20108;-56
2022/01/14 05:56:32;;;;;;;9.73;5.15;;;;;;;;;;5025481;28;20113;-57
2022/01/14 05:58:58;;;;;;;10.85;4.93;;;;;;;;;;5025270;28;20741;-57
2022/01/14 06:01:23;;;;;;;7.07;4.60;;;;;;;;;;5023815;28;20474;-58
2022/01/14 06:03:49;;;;;;;9.57;4.88;;;;;;;;;;5027659;28;20184;-57
2022/01/14 06:06:15;;;;;;;7.15;4.65;;;;;;;;;;5028662;28;20048;-57
2022/01/14 06:08:40;;;;;;;9.23;4.85;;;;;;;;;;5023059;28;20644;-57
2022/01/14 06:11:07;;;;;;;23.27;16.00;;;;;;;;;;5027132;28;20088;-58
2022/01/14 06:13:33;;;;;;;25.90;18.38;;;;;;;;;;5025567;28;20033;-57
2022/01/14 06:15:58;;;;;;;24.20;16.88;;;;;;;;;;5025071;28;20052;-58
2022/01/14 06:18:24;;;;;;;27.10;18.92;;;;;;;;;;5024287;28;20041;-56
2022/01/14 06:20:50;;;;;;;25.95;16.58;;;;;;;;;;5027432;28;20046;-55
2022/01/14 06:23:16;;;;;;;13.40;8.43;;;;;;;;;;5022530;28;20033;-49
2022/01/14 06:25:41;;;;;;;11.70;7.75;;;;;;;;;;5019494;28;20529;-55
2022/01/14 06:28:07;;;;;;;10.82;7.80;;;;;;;;;;5026321;28;20045;-50
2022/01/14 06:30:33;;;;;;;14.35;8.10;;;;;;;;;;5024625;28;20037;-52
2022/01/14 06:32:59;;;;;;;11.68;7.93;;;;;;;;;;5022055;28;20607;-52
2022/01/14 06:35:24;;;;;;;9.88;6.40;;;;;;;;;;5020116;28;20474;-56
2022/01/14 06:37:50;;;;;;;14.27;6.95;;;;;;;;;;5020084;28;20096;-55
2022/01/14 06:40:16;;;;;;;9.80;6.30;;;;;;;;;;5025710;28;20033;-50
2022/01/14 06:42:42;;;;;;;81.97;37.95;;;;;;;;;;5024009;28;20079;-57
2022/01/14 06:45:09;;;;;;;33.35;15.93;;;;;;;;;;5026138;28;20398;-51
2022/01/14 06:47:35;;;;;;;19.63;11.77;;;;;;;;;;5023635;28;20026;-53
2022/01/14 06:50:00;;;;;;;63.60;35.85;;;;;;;;;;5019256;28;20432;-51
2022/01/14 06:52:27;;;;;;;15.57;10.00;;;;;;;;;;5023200;28;20399;-55
2022/01/14 06:54:53;;;;;;;12.73;7.85;;;;;;;;;;5025995;28;20462;-53
2022/01/14 06:57:21;;;;;;;22.48;12.68;;;;;;;;;;5025555;28;20112;-53
2022/01/14 06:59:47;;;;;;;45.08;27.70;;;;;;;;;;5022300;28;20108;-56
2022/01/14 07:02:13;;;;;;;24.13;15.98;;;;;;;;;;5027287;28;21948;-57
2022/01/14 07:04:38;;;;;;;13.15;7.55;;;;;;;;;;5027134;28;20645;-52
2022/01/14 07:07:04;;;;;;;21.52;7.90;;;;;;;;;;5027341;28;20083;-57
2022/01/14 07:09:31;;;;;;;14.88;8.05;;;;;;;;;;5027405;28;20030;-56
2022/01/14 07:11:59;;;;;;;18.67;13.15;;;;;;;;;;5023414;28;20521;-51
2022/01/14 07:14:25;;;;;;;21.23;11.27;;;;;;;;;;5022404;28;20529;-55
2022/01/14 07:16:51;;;;;;;18.88;11.10;;;;;;;;;;5022005;28;20030;-55
2022/01/14 07:19:20;;;;;;;20.17;10.02;;;;;;;;;;5027674;28;20049;-55
2022/01/14 07:21:46;;;;;;;14.77;9.27;;;;;;;;;;5015631;28;20564;-53
2022/01/14 07:24:13;;;;;;;15.68;9.57;;;;;;;;;;5024681;28;20034;-55
2022/01/14 07:26:40;;;;;;;22.98;12.63;;;;;;;;;;5020305;28;20076;-50
2022/01/14 07:29:06;;;;;;;27.15;16.60;;;;;;;;;;5020834;28;20033;-54
2022/01/14 07:31:32;;;;;;;28.25;16.90;;;;;;;;;;5022595;28;20033;-57
2022/01/14 07:33:58;;;;;;;36.72;20.50;;;;;;;;;;5015882;28;20046;-52
2022/01/14 07:36:24;;;;;;;45.35;25.80;;;;;;;;;;5022067;28;20116;-53
2022/01/14 07:38:50;;;;;;;29.13;17.77;;;;;;;;;;5017761;28;20061;-57
2022/01/14 07:41:16;;;;;;;17.15;12.05;;;;;;;;;;5023040;28;20352;-51
2022/01/14 07:43:46;;;;;;;22.15;13.90;;;;;;;;;;5025264;28;20040;-54
2022/01/14 07:46:13;;;;;;;22.77;14.23;;;;;;;;;;5021218;28;20063;-54
2022/01/14 07:48:39;;;;;;;17.25;9.88;;;;;;;;;;5020297;28;20045;-54
2022/01/14 07:51:04;;;;;;;12.68;6.38;;;;;;;;;;5024528;28;20025;-51
2022/01/14 07:53:30;;;;;;;13.25;6.95;;;;;;;;;;5023790;28;20045;-57
2022/01/14 07:55:56;;;;;;;8.40;6.13;;;;;;;;;;5019010;28;20064;-51
2022/01/14 07:58:22;;;;;;;13.38;6.40;;;;;;;;;;5018085;28;20466;-53
2022/01/14 08:00:48;;;;;;;16.17;6.78;;;;;;;;;;5018327;28;20038;-54
2022/01/14 08:03:13;;;;;;;17.77;10.48;;;;;;;;;;5020581;28;20382;-56
2022/01/14 08:05:39;;;;;;;11.98;8.25;;;;;;;;;;5019566;28;20030;-57
2022/01/14 08:08:07;;;;;;;18.02;7.80;;;;;;;;;;5017235;28;20383;-53
2022/01/14 08:10:36;;;;;;;21.17;8.00;;;;;;;;;;5021967;28;20413;-58
2022/01/14 08:13:03;;;;;;;14.88;7.85;;;;;;;;;;5025774;28;20070;-55
2022/01/14 08:15:28;;;;;;;13.68;8.10;;;;;;;;;;5020636;28;20044;-52
2022/01/14 08:17:54;;;;;;;19.75;9.73;;;;;;;;;;5028407;28;20038;-53
2022/01/14 08:20:21;;;;;;;12.73;7.28;;;;;;;;;;5019480;28;21750;-53
2022/01/14 08:22:47;;;;;;;9.27;6.60;;;;;;;;;;5019371;28;20037;-57
2022/01/14 08:25:13;;;;;;;12.20;6.95;;;;;;;;;;5027341;28;20029;-55
2022/01/14 08:27:39;;;;;;;10.68;7.60;;;;;;;;;;5024963;28;20037;-52
2022/01/14 08:30:06;;;;;;;11.00;7.30;;;;;;;;;;5024389;28;20040;-52
2022/01/14 08:32:32;;;;;;;16.13;6.55;;;;;;;;;;5018665;28;20053;-56
2022/01/14 08:34:58;;;;;;;26.67;16.42;;;;;;;;;;5022755;28;20033;-52
2022/01/14 08:37:24;;;;;;;27.05;15.43;;;;;;;;;;5029559;28;20037;-57
2022/01/14 08:39:50;;;;;;;12.65;8.80;;;;;;;;;;5019998;28;20029;-52
2022/01/14 08:42:16;;;;;;;9.73;6.80;;;;;;;;;;5026411;28;20479;-56
2022/01/14 08:44:42;;;;;;;9.88;7.38;;;;;;;;;;5030106;28;20025;-56
2022/01/14 08:47:09;;;;;;;9.75;6.85;;;;;;;;;;5027734;28;20124;-58
2022/01/14 08:49:40;;;;;;;7.82;5.75;;;;;;;;;;5026727;28;20048;-55
2022/01/14 08:52:07;;;;;;;10.07;7.28;;;;;;;;;;5019257;28;20044;-54
2022/01/14 08:54:33;;;;;;;12.30;8.40;;;;;;;;;;5020946;28;20033;-50
2022/01/14 08:56:59;;;;;;;12.25;7.40;;;;;;;;;;5024347;28;22709;-55
2022/01/14 08:59:24;;;;;;;11.63;6.85;;;;;;;;;;5016427;28;20048;-57
2022/01/14 09:01:50;;;;;;;8.63;5.32;;;;;;;;;;5024369;28;20034;-57
2022/01/14 09:04:16;;;;;;;12.77;6.65;;;;;;;;;;5020643;28;20033;-56
2022/01/14 09:06:42;;;;;;;14.68;8.65;;;;;;;;;;5018927;28;20037;-55
2022/01/14 09:09:08;;;;;;;20.00;10.38;;;;;;;;;;5021334;28;20402;-57
2022/01/14 09:11:34;;;;;;;17.75;10.05;;;;;;;;;;5022475;28;20041;-57
2022/01/14 09:14:00;;;;;;;21.92;9.20;;;;;;;;;;5019160;28;20033;-56
2022/01/14 09:16:26;;;;;;;12.98;8.75;;;;;;;;;;5024986;28;20029;-56
2022/01/14 09:18:52;;;;;;;14.55;9.05;;;;;;;;;;5020165;28;20410;-55
2022/01/14 09:21:18;;;;;;;14.38;8.85;;;;;;;;;;5017925;28;20057;-54
2022/01/14 09:23:52;;;;;;;24.05;11.20;;;;;;;;;;5019747;28;20038;-57
2022/01/14 09:26:19;;;;;;;17.98;10.93;;;;;;;;;;5014735;28;20084;-52
2022/01/14 09:28:45;;;;;;;19.00;10.48;;;;;;;;;;5021029;28;20025;-58
2022/01/14 09:31:10;;;;;;;18.10;11.40;;;;;;;;;;5018035;28;22024;-56
2022/01/14 09:33:38;;;;;;;23.17;11.85;;;;;;;;;;5020975;28;20022;-57
2022/01/14 09:36:05;;;;;;;33.10;13.20;;;;;;;;;;5020828;28;20025;-55
2022/01/14 09:38:31;;;;;;;24.77;13.02;;;;;;;;;;5026333;28;20483;-57
2022/01/14 09:40:58;;;;;;;23.08;13.23;;;;;;;;;;5022313;28;20096;-55
2022/01/14 09:43:25;;;;;;;20.00;11.77;;;;;;;;;;5022241;28;20036;-56
2022/01/14 09:45:52;;;;;;;23.30;12.75;;;;;;;;;;5020026;28;20036;-56
2022/01/14 09:48:18;;;;;;;33.72;12.30;;;;;;;;;;5022786;28;20399;-54
2022/01/14 09:50:45;;;;;;;37.72;14.48;;;;;;;;;;5022200;28;20033;-57
2022/01/14 09:53:12;;;;;;;25.38;13.82;;;;;;;;;;5020043;28;20029;-54
2022/01/14 09:55:38;;;;;;;45.90;15.02;;;;;;;;;;5028005;28;20044;-57
2022/01/14 09:58:04;;;;;;;40.53;14.23;;;;;;;;;;5022993;28;20033;-58
2022/01/14 10:00:29;;;;;;;43.10;15.88;;;;;;;;;;5016795;28;20049;-53
2022/01/14 10:02:55;;;;;;;35.80;15.38;;;;;;;;;;5018912;28;20056;-57
2022/01/14 10:05:31;;;;;;;37.40;15.40;;;;;;;;;;5023676;28;20041;-51
2022/01/14 10:08:18;;;;;;;53.63;17.23;;;;;;;;;;5022901;28;20037;-56
2022/01/14 10:10:50;;;;;;;35.15;17.83;;;;;;;;;;5021738;28;20087;-55
2022/01/14 10:13:20;;;;;;;37.65;17.77;;;;;;;;;;5022028;28;20494;-54
2022/01/14 10:15:48;;;;;;;37.90;19.42;;;;;;;;;;5018085;28;20409;-55
2022/01/14 10:18:16;;;;;;;49.33;19.23;;;;;;;;;;5019362;28;20056;-53
2022/01/14 10:20:42;;;;;;;43.58;19.60;;;;;;;;;;5021976;28;20045;-54
2022/01/14 10:23:08;;;;;;;46.83;20.17;;;;;;;;;;5023710;28;20029;-53
2022/01/14 10:25:34;;;;;;;34.58;19.15;;;;;;;;;;5025744;28;20040;-51
2022/01/14 10:28:00;;;;;;;29.63;19.10;;;;;;;;;;5023135;28;20041;-58
2022/01/14 10:30:28;;;;;;;37.45;19.23;;;;;;;;;;5022572;28;20041;-54
2022/01/14 10:33:01;;;;;;;30.77;18.60;;;;;;;;;;5017629;28;20124;-56
2022/01/14 10:35:30;;;;;;;;;;;;;;;;;;5020986;28;22145;-51
2022/01/14 10:37:59;;;;;;;36.63;20.45;;;;;;;;;;5022560;28;19925;-48
2022/01/14 10:40:28;;;;;;;35.97;20.80;;;;;;;;;;5025667;28;20044;-51
2022/01/14 10:43:08;;;;;;;37.85;20.98;;;;;;;;;;5012012;28;20041;-51
2022/01/14 10:45:34;;;;;;;46.75;21.98;;;;;;;;;;5019356;28;20040;-52
2022/01/14 10:48:00;;;;;;;38.95;21.95;;;;;;;;;;5021775;28;20030;-54
2022/01/14 10:50:29;;;;;;;53.08;23.48;;;;;;;;;;5021892;28;20045;-52
2022/01/14 10:52:55;;;;;;;50.22;24.90;;;;;;;;;;5013758;28;20132;-51
2022/01/14 10:55:35;;;;;;;52.67;25.60;;;;;;;;;;5015056;28;20457;-51
2022/01/14 10:58:04;;;;;;;49.63;25.35;;;;;;;;;;5018436;28;20029;-51
2022/01/14 11:00:39;;;;;;;38.15;25.55;;;;;;;;;;5019354;28;20049;-51
2022/01/14 11:03:05;;;;;;;47.30;25.88;;;;;;;;;;5022185;28;20040;-51
2022/01/14 11:05:31;;;;;;;50.38;24.95;;;;;;;;;;5018065;28;20037;-51
2022/01/14 11:07:57;;;;;;;51.33;25.15;;;;;;;;;;5017812;28;20033;-55
2022/01/14 11:10:28;;;;;;;33.35;24.63;;;;;;;;;;5018280;28;20090;-55
2022/01/14 11:12:55;;;;;;;37.10;23.48;;;;;;;;;;5022192;28;20029;-52
2022/01/14 11:15:23;;;;;;;40.15;25.80;;;;;;;;;;5022025;28;20028;-55
2022/01/14 11:17:52;;;;;;;40.35;25.45;;;;;;;;;;5017724;28;20487;-57
2022/01/14 11:20:25;;;;;;;37.10;23.48;;;;;;;;;;5024126;28;20057;-55
2022/01/14 11:25:41;;;;;;;37.88;22.77;;;;;;;;;;5018122;28;20110;-57
2022/01/14 11:28:08;;;;;;;36.92;20.83;;;;;;;;;;5016984;28;20470;-54
2022/01/14 11:30:37;;;;;;;32.95;18.17;;;;;;;;;;5018681;28;20055;-54
2022/01/14 11:33:05;;;;;;;35.42;19.50;;;;;;;;;;5021364;28;20412;-55
2022/01/14 11:35:34;;;;;;;34.08;18.70;;;;;;;;;;5020947;28;20030;-53
2022/01/14 11:38:01;;;;;;;37.78;20.35;;;;;;;;;;5021171;28;20474;-57
2022/01/14 11:40:46;;;;;;;49.28;22.35;;;;;;;;;;5023983;28;20045;-54
2022/01/14 11:43:39;;;;;;;44.80;24.23;;;;;;;;;;5021038;28;20036;-52
2022/01/14 11:46:05;;;;;;;25.80;18.05;;;;;;;;;;5021385;28;20441;-49
2022/01/14 11:48:35;;;;;;;27.63;16.65;;;;;;;;;;5020347;28;20038;-54
2022/01/14 11:51:06;;;;;;;31.33;14.27;;;;;;;;;;5017488;28;20029;-54
2022/01/14 11:53:41;;;;;;;19.08;13.77;;;;;;;;;;5018087;28;20084;-54
2022/01/14 11:56:32;;;;;;;25.92;13.75;;;;;;;;;;5020135;28;20419;-53
2022/01/14 11:59:22;;;;;;;20.63;13.73;;;;;;;;;;5020786;28;20052;-55
2022/01/14 12:01:50;;;;;;;27.80;14.00;;;;;;;;;;5020644;28;20056;-51
2022/01/14 12:04:17;;;;;;;21.13;13.93;;;;;;;;;;5016853;28;20104;-52
2022/01/14 12:06:54;;;;;;;21.45;13.65;;;;;;;;;;5020470;28;20060;-51
2022/01/14 12:09:22;;;;;;;27.85;15.07;;;;;;;;;;5022162;28;20052;-56
2022/01/14 12:12:22;;;;;;;21.02;14.05;;;;;;;;;;5021376;28;20130;-57
2022/01/14 12:14:56;;;;;;;20.92;14.35;;;;;;;;;;5016039;28;20084;-51
2022/01/14 12:17:40;;;;;;;21.90;15.00;;;;;;;;;;5023949;28;20030;-51
2022/01/14 12:20:18;;;;;;;25.85;15.65;;;;;;;;;;5018352;28;20049;-56
2022/01/14 12:23:07;;;;;;;24.25;15.55;;;;;;;;;;5016712;28;20037;-56
2022/01/14 12:25:40;;;;;;;23.00;15.65;;;;;;;;;;5022515;28;20033;-54
2022/01/14 12:28:25;;;;;;;23.13;14.98;;;;;;;;;;5018821;28;20491;-52
2022/01/14 12:31:01;;;;;;;23.80;14.93;;;;;;;;;;5026056;28;20036;-53
2022/01/14 12:33:40;;;;;;;35.55;14.30;;;;;;;;;;5019687;28;20037;-52
2022/01/14 12:36:15;;;;;;;24.08;14.02;;;;;;;;;;5017616;28;20045;-55
2022/01/14 12:38:42;;;;;;;20.50;14.68;;;;;;;;;;5016638;28;20050;-54
2022/01/14 12:41:24;;;;;;;25.55;14.68;;;;;;;;;;5022475;28;20044;-56
2022/01/14 12:43:52;;;;;;;23.80;14.27;;;;;;;;;;5015636;28;20556;-55
2022/01/14 12:49:09;;;;;;;19.90;12.65;;;;;;;;;;5018270;28;20080;-55
2022/01/14 12:51:36;;;;;;;20.95;14.23;;;;;;;;;;5022319;28;20054;-54
2022/01/14 12:54:04;;;;;;;24.50;14.73;;;;;;;;;;5021849;28;20470;-53
2022/01/14 12:56:39;;;;;;;21.77;12.90;;;;;;;;;;5019367;28;20902;-55
2022/01/14 12:59:10;;;;;;;22.27;13.05;;;;;;;;;;5023710;28;20500;-54
2022/01/14 13:01:37;;;;;;;27.58;13.40;;;;;;;;;;5023495;28;20430;-56
2022/01/14 13:04:10;;;;;;;25.38;14.30;;;;;;;;;;5021529;28;20053;-55
2022/01/14 13:06:57;;;;;;;26.63;12.75;;;;;;;;;;5021933;28;20386;-53
2022/01/14 13:09:29;;;;;;;21.50;13.70;;;;;;;;;;5016047;28;20124;-51
2022/01/14 13:11:59;;;;;;;21.52;12.77;;;;;;;;;;5021017;28;20097;-54
2022/01/14 13:14:29;;;;;;;18.83;12.95;;;;;;;;;;5020101;28;20095;-55
2022/01/14 13:16:58;;;;;;;20.42;13.18;;;;;;;;;;5020258;28;20116;-52
2022/01/14 13:19:28;;;;;;;19.08;13.13;;;;;;;;;;5017884;28;20045;-56
2022/01/14 13:21:54;;;;;;;16.60;12.80;;;;;;;;;;5022139;28;20033;-54
2022/01/14 13:24:29;;;;;;;23.80;12.52;;;;;;;;;;5017383;28;20029;-54
2022/01/14 13:27:29;;;;;;;19.35;13.07;;;;;;;;;;5021365;28;20096;-52
2022/01/14 13:30:04;;;;;;;22.02;13.07;;;;;;;;;;5016205;28;20427;-56
2022/01/14 13:32:34;;;;;;;19.73;13.25;;;;;;;;;;5011291;28;20169;-56
2022/01/14 13:35:10;;;;;;;20.92;13.23;;;;;;;;;;5013368;28;20030;-55
2022/01/14 13:37:38;;;;;;;18.60;11.90;;;;;;;;;;5019665;28;20529;-53
2022/01/14 13:40:10;;;;;;;21.45;11.85;;;;;;;;;;5017784;28;20510;-53
2022/01/14 13:42:37;;;;;;;;;;;;;;;;;;5012127;28;20037;-55
2022/01/14 13:45:05;;;;;;;29.58;10.57;;;;;;;;;;5011155;28;19928;-57
2022/01/14 13:47:34;;;;;;;22.58;10.52;;;;;;;;;;5012773;28;20042;-55
2022/01/14 13:50:12;;;;;;;26.90;10.90;;;;;;;;;;5001871;28;20104;-54
2022/01/14 13:52:38;;;;;;;30.67;10.27;;;;;;;;;;5011119;28;20073;-56
2022/01/14 13:55:04;;;;;;;41.72;10.77;;;;;;;;;;5020746;28;20501;-56
2022/01/14 13:57:30;;;;;;;22.73;10.23;;;;;;;;;;5017568;28;20127;-55
2022/01/14 14:00:13;;;;;;;30.83;10.15;;;;;;;;;;5016762;28;20125;-53
2022/01/14 14:02:52;;;;;;;30.45;11.15;;;;;;;;;;5021403;28;20217;-56
2022/01/14 14:05:43;;;;;;;20.75;11.00;;;;;;;;;;5015565;28;20037;-57
2022/01/14 14:08:18;;;;;;;26.60;10.82;;;;;;;;;;5026142;28;20030;-57
2022/01/14 14:16:33;;;;;;;33.22;10.93;;;;;;;;;;5023578;28;20038;-51
2022/01/14 14:18:59;;;;;;;25.08;10.88;;;;;;;;;;5018062;28;20115;-53
2022/01/14 14:21:29;;;;;;;31.40;10.80;;;;;;;;;;5017423;28;20573;-55
2022/01/14 14:23:57;;;;;;;39.97;10.48;;;;;;;;;;5015907;28;20030;-56
2022/01/14 14:26:31;;;;;;;21.10;10.35;;;;;;;;;;5015441;28;20033;-57
2022/01/14 14:29:22;;;;;;;20.85;10.63;;;;;;;;;;5012048;28;20041;-57
2022/01/14 14:31:47;;;;;;;16.58;9.68;;;;;;;;;;5015841;28;20036;-55
2022/01/14 14:34:13;;;;;;;24.85;11.75;;;;;;;;;;5018362;28;20030;-55
2022/01/14 14:36:41;;;;;;;19.50;12.00;;;;;;;;;;5021589;28;20080;-52
2022/01/14 14:39:07;;;;;;;28.63;14.82;;;;;;;;;;5021327;28;20029;-55
2022/01/14 14:41:33;;;;;;;27.45;14.68;;;;;;;;;;5017786;28;20030;-53
2022/01/14 14:43:59;;;;;;;21.63;13.48;;;;;;;;;;5015151;28;20095;-56
2022/01/14 14:46:25;;;;;;;24.52;14.77;;;;;;;;;;5023312;28;20470;-57
2022/01/14 14:48:52;;;;;;;28.55;14.18;;;;;;;;;;5023767;28;20037;-55
2022/01/14 14:51:18;;;;;;;20.02;13.82;;;;;;;;;;5022531;28;20033;-58
2022/01/14 14:53:44;;;;;;;21.25;13.13;;;;;;;;;;5021697;28;20047;-57
2022/01/14 14:56:10;;;;;;;21.23;14.27;;;;;;;;;;5018722;28;20034;-57
2022/01/14 14:58:37;;;;;;;21.98;14.45;;;;;;;;;;5022614;28;20124;-56
2022/01/14 15:01:07;;;;;;;23.13;14.52;;;;;;;;;;5026313;28;20387;-56
2022/01/14 15:03:37;;;;;;;23.02;13.15;;;;;;;;;;5019624;28;20053;-53
2022/01/14 15:06:04;;;;;;;24.40;13.40;;;;;;;;;;5024412;28;20033;-53
2022/01/14 15:08:30;;;;;;;27.10;13.35;;;;;;;;;;5023948;28;20061;-55
2022/01/14 15:10:58;;;;;;;24.55;13.95;;;;;;;;;;5019235;28;20606;-53
2022/01/14 15:13:23;;;;;;;31.63;14.48;;;;;;;;;;5022031;28;20057;-55